sensor_id;sensor_type;location;lat;lon;timestamp;P1;durP1;ratioP1;P2;durP2;ratioP2
11677;SDS011;5895;41.950;24.372;2023-06-22T00:01:33;10.07;;;9.27;;
11677;SDS011;5895;41.950;24.372;2023-06-22T00:04:00;9.82;;;8.85;;
11677;SDS011;5895;41.950;24.372;2023-06-22T00:06:29;10.02;;;8.98;;
11677;SDS011;5895;41.950;24.372;2023-06-22T00:08:56;9.45;;;8.30;;
11677;SDS011;5895;41.950;24.372;2023-06-22T00:11:23;11.25;;;9.18;;
11677;SDS011;5895;41.950;24.372;2023-06-22T00:13:50;9.77;;;8.88;;
11677;SDS011;5895;41.950;24.372;2023-06-22T00:16:17;10.35;;;8.98;;
11677;SDS011;5895;41.950;24.372;2023-06-22T00:18:44;10.23;;;9.43;;
11677;SDS011;5895;41.950;24.372;2023-06-22T00:21:14;9.70;;;8.90;;
11677;SDS011;5895;41.950;24.372;2023-06-22T00:23:42;9.68;;;8.85;;
11677;SDS011;5895;41.950;24.372;2023-06-22T00:26:09;10.25;;;9.38;;
11677;SDS011;5895;41.950;24.372;2023-06-22T00:28:37;11.02;;;8.88;;
11677;SDS011;5895;41.950;24.372;2023-06-22T00:31:04;10.20;;;9.30;;
11677;SDS011;5895;41.950;24.372;2023-06-22T00:33:31;8.65;;;7.88;;
11677;SDS011;5895;41.950;24.372;2023-06-22T00:35:58;9.13;;;8.35;;
11677;SDS011;5895;41.950;24.372;2023-06-22T00:38:25;10.73;;;9.73;;
11677;SDS011;5895;41.950;24.372;2023-06-22T00:40:54;9.98;;;9.07;;
11677;SDS011;5895;41.950;24.372;2023-06-22T00:43:21;10.85;;;9.75;;
11677;SDS011;5895;41.950;24.372;2023-06-22T00:45:48;15.38;;;8.40;;
11677;SDS011;5895;41.950;24.372;2023-06-22T00:48:15;10.60;;;9.35;;
11677;SDS011;5895;41.950;24.372;2023-06-22T00:50:43;9.55;;;8.75;;
11677;SDS011;5895;41.950;24.372;2023-06-22T00:53:10;9.75;;;8.73;;
11677;SDS011;5895;41.950;24.372;2023-06-22T00:55:38;10.32;;;9.35;;
11677;SDS011;5895;41.950;24.372;2023-06-22T00:58:10;9.68;;;8.88;;
11677;SDS011;5895;41.950;24.372;2023-06-22T01:00:39;10.07;;;9.18;;
11677;SDS011;5895;41.950;24.372;2023-06-22T01:03:07;9.65;;;8.70;;
11677;SDS011;5895;41.950;24.372;2023-06-22T01:05:34;8.95;;;8.25;;
11677;SDS011;5895;41.950;24.372;2023-06-22T01:08:07;9.77;;;8.82;;
11677;SDS011;5895;41.950;24.372;2023-06-22T01:10:43;9.90;;;9.00;;
11677;SDS011;5895;41.950;24.372;2023-06-22T01:13:18;9.52;;;8.73;;
11677;SDS011;5895;41.950;24.372;2023-06-22T01:15:55;9.60;;;8.63;;
11677;SDS011;5895;41.950;24.372;2023-06-22T01:18:26;9.15;;;8.35;;
11677;SDS011;5895;41.950;24.372;2023-06-22T01:20:56;9.45;;;8.45;;
11677;SDS011;5895;41.950;24.372;2023-06-22T01:23:27;8.93;;;8.13;;
11677;SDS011;5895;41.950;24.372;2023-06-22T01:26:02;9.45;;;8.65;;
11677;SDS011;5895;41.950;24.372;2023-06-22T01:28:46;12.60;;;9.02;;
11677;SDS011;5895;41.950;24.372;2023-06-22T01:31:16;9.10;;;8.30;;
11677;SDS011;5895;41.950;24.372;2023-06-22T01:33:46;9.02;;;8.23;;
11677;SDS011;5895;41.950;24.372;2023-06-22T01:36:16;8.98;;;8.18;;
11677;SDS011;5895;41.950;24.372;2023-06-22T01:38:44;8.93;;;8.13;;
11677;SDS011;5895;41.950;24.372;2023-06-22T01:41:13;8.90;;;8.15;;
11677;SDS011;5895;41.950;24.372;2023-06-22T01:43:41;9.18;;;8.27;;
11677;SDS011;5895;41.950;24.372;2023-06-22T01:46:11;9.30;;;8.50;;
11677;SDS011;5895;41.950;24.372;2023-06-22T01:48:39;9.57;;;8.30;;
11677;SDS011;5895;41.950;24.372;2023-06-22T01:51:07;8.70;;;7.88;;
11677;SDS011;5895;41.950;24.372;2023-06-22T01:53:34;10.38;;;7.95;;
11677;SDS011;5895;41.950;24.372;2023-06-22T01:56:01;8.40;;;7.70;;
11677;SDS011;5895;41.950;24.372;2023-06-22T01:58:29;10.70;;;8.15;;
11677;SDS011;5895;41.950;24.372;2023-06-22T02:00:58;8.73;;;7.82;;
11677;SDS011;5895;41.950;24.372;2023-06-22T02:03:31;8.98;;;8.07;;
11677;SDS011;5895;41.950;24.372;2023-06-22T02:06:02;8.70;;;7.90;;
11677;SDS011;5895;41.950;24.372;2023-06-22T02:08:32;9.45;;;8.50;;
11677;SDS011;5895;41.950;24.372;2023-06-22T02:11:04;9.35;;;8.50;;
11677;SDS011;5895;41.950;24.372;2023-06-22T02:13:34;8.90;;;8.10;;
11677;SDS011;5895;41.950;24.372;2023-06-22T02:16:03;9.75;;;8.95;;
11677;SDS011;5895;41.950;24.372;2023-06-22T02:18:32;10.15;;;8.32;;
11677;SDS011;5895;41.950;24.372;2023-06-22T02:21:00;8.90;;;8.20;;
11677;SDS011;5895;41.950;24.372;2023-06-22T02:23:28;8.73;;;8.02;;
11677;SDS011;5895;41.950;24.372;2023-06-22T02:25:55;9.80;;;8.82;;
11677;SDS011;5895;41.950;24.372;2023-06-22T02:28:22;10.13;;;8.20;;
11677;SDS011;5895;41.950;24.372;2023-06-22T02:30:49;9.85;;;8.93;;
11677;SDS011;5895;41.950;24.372;2023-06-22T02:33:16;9.40;;;8.50;;
11677;SDS011;5895;41.950;24.372;2023-06-22T02:35:45;9.20;;;8.50;;
11677;SDS011;5895;41.950;24.372;2023-06-22T02:38:14;10.32;;;8.40;;
11677;SDS011;5895;41.950;24.372;2023-06-22T02:40:42;9.45;;;8.55;;
11677;SDS011;5895;41.950;24.372;2023-06-22T02:43:09;9.07;;;8.30;;
11677;SDS011;5895;41.950;24.372;2023-06-22T02:45:37;9.75;;;8.93;;
11677;SDS011;5895;41.950;24.372;2023-06-22T02:48:04;9.43;;;8.52;;
11677;SDS011;5895;41.950;24.372;2023-06-22T02:50:31;9.00;;;8.20;;
11677;SDS011;5895;41.950;24.372;2023-06-22T02:53:00;10.13;;;9.32;;
11677;SDS011;5895;41.950;24.372;2023-06-22T02:55:28;8.70;;;7.93;;
11677;SDS011;5895;41.950;24.372;2023-06-22T02:57:56;9.35;;;8.55;;
11677;SDS011;5895;41.950;24.372;2023-06-22T03:00:24;8.77;;;7.95;;
11677;SDS011;5895;41.950;24.372;2023-06-22T03:02:55;9.27;;;8.48;;
11677;SDS011;5895;41.950;24.372;2023-06-22T03:05:23;9.00;;;8.20;;
11677;SDS011;5895;41.950;24.372;2023-06-22T03:07:51;12.63;;;8.02;;
11677;SDS011;5895;41.950;24.372;2023-06-22T03:10:19;7.82;;;7.22;;
11677;SDS011;5895;41.950;24.372;2023-06-22T03:12:47;8.63;;;7.82;;
11677;SDS011;5895;41.950;24.372;2023-06-22T03:15:14;9.18;;;8.20;;
11677;SDS011;5895;41.950;24.372;2023-06-22T03:17:42;9.15;;;8.32;;
11677;SDS011;5895;41.950;24.372;2023-06-22T03:20:09;10.00;;;9.00;;
11677;SDS011;5895;41.950;24.372;2023-06-22T03:22:37;9.05;;;8.35;;
11677;SDS011;5895;41.950;24.372;2023-06-22T03:25:06;9.77;;;8.77;;
11677;SDS011;5895;41.950;24.372;2023-06-22T03:27:39;10.15;;;9.10;;
11677;SDS011;5895;41.950;24.372;2023-06-22T03:30:07;10.18;;;9.38;;
11677;SDS011;5895;41.950;24.372;2023-06-22T03:32:35;10.05;;;9.15;;
11677;SDS011;5895;41.950;24.372;2023-06-22T03:35:03;10.20;;;9.30;;
11677;SDS011;5895;41.950;24.372;2023-06-22T03:37:31;10.20;;;9.23;;
11677;SDS011;5895;41.950;24.372;2023-06-22T03:39:58;10.20;;;9.20;;
11677;SDS011;5895;41.950;24.372;2023-06-22T03:42:25;10.30;;;9.32;;
11677;SDS011;5895;41.950;24.372;2023-06-22T03:44:54;10.60;;;9.70;;
11677;SDS011;5895;41.950;24.372;2023-06-22T03:47:21;10.50;;;9.60;;
11677;SDS011;5895;41.950;24.372;2023-06-22T03:49:49;11.40;;;9.52;;
11677;SDS011;5895;41.950;24.372;2023-06-22T03:52:20;10.70;;;9.38;;
11677;SDS011;5895;41.950;24.372;2023-06-22T03:54:48;11.05;;;9.98;;
11677;SDS011;5895;41.950;24.372;2023-06-22T03:57:15;10.27;;;9.23;;
11677;SDS011;5895;41.950;24.372;2023-06-22T03:59:42;10.38;;;9.57;;
11677;SDS011;5895;41.950;24.372;2023-06-22T04:02:11;10.38;;;9.45;;
11677;SDS011;5895;41.950;24.372;2023-06-22T04:04:38;10.63;;;9.68;;
11677;SDS011;5895;41.950;24.372;2023-06-22T04:07:05;10.63;;;9.65;;
11677;SDS011;5895;41.950;24.372;2023-06-22T04:09:33;10.40;;;9.50;;
11677;SDS011;5895;41.950;24.372;2023-06-22T04:12:00;10.43;;;9.52;;
11677;SDS011;5895;41.950;24.372;2023-06-22T04:14:28;11.13;;;9.98;;
11677;SDS011;5895;41.950;24.372;2023-06-22T04:16:55;10.82;;;9.82;;
11677;SDS011;5895;41.950;24.372;2023-06-22T04:19:24;10.10;;;9.07;;
11677;SDS011;5895;41.950;24.372;2023-06-22T04:21:51;10.75;;;9.82;;
11677;SDS011;5895;41.950;24.372;2023-06-22T04:24:18;10.27;;;9.38;;
11677;SDS011;5895;41.950;24.372;2023-06-22T04:26:45;12.43;;;10.25;;
11677;SDS011;5895;41.950;24.372;2023-06-22T04:29:12;10.98;;;9.70;;
11677;SDS011;5895;41.950;24.372;2023-06-22T04:31:40;9.23;;;8.32;;
11677;SDS011;5895;41.950;24.372;2023-06-22T04:34:07;8.75;;;7.95;;
11677;SDS011;5895;41.950;24.372;2023-06-22T04:36:36;10.75;;;9.75;;
11677;SDS011;5895;41.950;24.372;2023-06-22T04:39:05;10.48;;;9.52;;
11677;SDS011;5895;41.950;24.372;2023-06-22T04:41:34;8.90;;;8.20;;
11677;SDS011;5895;41.950;24.372;2023-06-22T04:44:11;9.52;;;8.73;;
11677;SDS011;5895;41.950;24.372;2023-06-22T04:46:39;9.50;;;8.63;;
11677;SDS011;5895;41.950;24.372;2023-06-22T04:49:06;8.68;;;7.88;;
11677;SDS011;5895;41.950;24.372;2023-06-22T04:51:39;9.30;;;8.45;;
11677;SDS011;5895;41.950;24.372;2023-06-22T04:54:08;8.88;;;8.00;;
11677;SDS011;5895;41.950;24.372;2023-06-22T04:56:35;8.55;;;7.85;;
11677;SDS011;5895;41.950;24.372;2023-06-22T04:59:06;9.80;;;8.10;;
11677;SDS011;5895;41.950;24.372;2023-06-22T05:01:38;8.15;;;7.45;;
11677;SDS011;5895;41.950;24.372;2023-06-22T05:04:05;8.52;;;7.82;;
11677;SDS011;5895;41.950;24.372;2023-06-22T05:06:32;8.88;;;7.95;;
11677;SDS011;5895;41.950;24.372;2023-06-22T05:09:01;8.50;;;7.03;;
11677;SDS011;5895;41.950;24.372;2023-06-22T05:11:30;7.45;;;6.75;;
11677;SDS011;5895;41.950;24.372;2023-06-22T05:13:57;8.65;;;7.75;;
11677;SDS011;5895;41.950;24.372;2023-06-22T05:16:24;7.38;;;6.70;;
11677;SDS011;5895;41.950;24.372;2023-06-22T05:18:52;7.80;;;7.07;;
11677;SDS011;5895;41.950;24.372;2023-06-22T05:21:23;7.20;;;6.60;;
11677;SDS011;5895;41.950;24.372;2023-06-22T05:23:51;7.65;;;6.95;;
11677;SDS011;5895;41.950;24.372;2023-06-22T05:26:21;6.40;;;5.90;;
11677;SDS011;5895;41.950;24.372;2023-06-22T05:28:48;7.20;;;6.50;;
11677;SDS011;5895;41.950;24.372;2023-06-22T05:31:16;8.05;;;7.25;;
11677;SDS011;5895;41.950;24.372;2023-06-22T05:33:45;7.03;;;6.35;;
11677;SDS011;5895;41.950;24.372;2023-06-22T05:36:13;8.35;;;5.97;;
11677;SDS011;5895;41.950;24.372;2023-06-22T05:38:40;6.38;;;5.85;;
11677;SDS011;5895;41.950;24.372;2023-06-22T05:41:08;6.65;;;6.05;;
11677;SDS011;5895;41.950;24.372;2023-06-22T05:43:36;6.53;;;5.93;;
11677;SDS011;5895;41.950;24.372;2023-06-22T05:46:04;6.90;;;6.15;;
11677;SDS011;5895;41.950;24.372;2023-06-22T05:48:31;8.00;;;6.28;;
11677;SDS011;5895;41.950;24.372;2023-06-22T05:50:58;6.38;;;5.88;;
11677;SDS011;5895;41.950;24.372;2023-06-22T05:53:25;7.05;;;6.45;;
11677;SDS011;5895;41.950;24.372;2023-06-22T05:55:52;6.22;;;5.72;;
11677;SDS011;5895;41.950;24.372;2023-06-22T05:58:20;7.80;;;5.90;;
11677;SDS011;5895;41.950;24.372;2023-06-22T06:00:48;7.72;;;6.88;;
11677;SDS011;5895;41.950;24.372;2023-06-22T06:03:16;7.07;;;6.20;;
11677;SDS011;5895;41.950;24.372;2023-06-22T06:05:43;6.65;;;6.07;;
11677;SDS011;5895;41.950;24.372;2023-06-22T06:08:11;6.93;;;6.43;;
11677;SDS011;5895;41.950;24.372;2023-06-22T06:10:38;7.72;;;7.13;;
11677;SDS011;5895;41.950;24.372;2023-06-22T06:13:05;8.95;;;6.85;;
11677;SDS011;5895;41.950;24.372;2023-06-22T06:15:33;6.97;;;6.38;;
11677;SDS011;5895;41.950;24.372;2023-06-22T06:18:03;7.28;;;6.63;;
11677;SDS011;5895;41.950;24.372;2023-06-22T06:20:31;8.80;;;7.93;;
11677;SDS011;5895;41.950;24.372;2023-06-22T06:22:59;8.70;;;7.80;;
11677;SDS011;5895;41.950;24.372;2023-06-22T06:25:26;8.55;;;7.75;;
11677;SDS011;5895;41.950;24.372;2023-06-22T06:27:54;8.48;;;7.53;;
11677;SDS011;5895;41.950;24.372;2023-06-22T06:30:21;8.07;;;7.28;;
11677;SDS011;5895;41.950;24.372;2023-06-22T06:32:49;7.90;;;7.18;;
11677;SDS011;5895;41.950;24.372;2023-06-22T06:35:18;8.93;;;8.02;;
11677;SDS011;5895;41.950;24.372;2023-06-22T06:37:48;8.60;;;7.82;;
11677;SDS011;5895;41.950;24.372;2023-06-22T06:40:17;11.27;;;7.68;;
11677;SDS011;5895;41.950;24.372;2023-06-22T06:42:45;8.18;;;7.47;;
11677;SDS011;5895;41.950;24.372;2023-06-22T06:45:15;12.20;;;8.07;;
11677;SDS011;5895;41.950;24.372;2023-06-22T06:47:43;8.60;;;7.47;;
11677;SDS011;5895;41.950;24.372;2023-06-22T06:50:10;10.13;;;7.47;;
11677;SDS011;5895;41.950;24.372;2023-06-22T06:52:40;8.13;;;7.28;;
11677;SDS011;5895;41.950;24.372;2023-06-22T06:55:08;8.32;;;7.35;;
11677;SDS011;5895;41.950;24.372;2023-06-22T06:57:37;8.60;;;6.90;;
11677;SDS011;5895;41.950;24.372;2023-06-22T07:00:05;7.80;;;6.85;;
11677;SDS011;5895;41.950;24.372;2023-06-22T07:02:37;7.80;;;7.00;;
11677;SDS011;5895;41.950;24.372;2023-06-22T07:05:04;7.55;;;6.80;;
11677;SDS011;5895;41.950;24.372;2023-06-22T07:07:31;7.18;;;6.57;;
11677;SDS011;5895;41.950;24.372;2023-06-22T07:10:00;8.05;;;7.10;;
11677;SDS011;5895;41.950;24.372;2023-06-22T07:12:28;7.20;;;6.50;;
11677;SDS011;5895;41.950;24.372;2023-06-22T07:15:00;9.05;;;6.57;;
11677;SDS011;5895;41.950;24.372;2023-06-22T07:17:29;7.90;;;7.05;;
11677;SDS011;5895;41.950;24.372;2023-06-22T07:19:56;7.53;;;6.60;;
11677;SDS011;5895;41.950;24.372;2023-06-22T07:22:23;7.30;;;6.60;;
11677;SDS011;5895;41.950;24.372;2023-06-22T07:24:50;7.95;;;7.20;;
11677;SDS011;5895;41.950;24.372;2023-06-22T07:27:19;7.40;;;6.80;;
11677;SDS011;5895;41.950;24.372;2023-06-22T07:29:46;7.65;;;6.95;;
11677;SDS011;5895;41.950;24.372;2023-06-22T07:32:13;7.93;;;6.65;;
11677;SDS011;5895;41.950;24.372;2023-06-22T07:34:40;6.85;;;6.35;;
11677;SDS011;5895;41.950;24.372;2023-06-22T07:37:08;7.70;;;7.03;;
11677;SDS011;5895;41.950;24.372;2023-06-22T07:39:36;8.10;;;7.00;;
11677;SDS011;5895;41.950;24.372;2023-06-22T07:42:03;9.95;;;6.30;;
11677;SDS011;5895;41.950;24.372;2023-06-22T07:44:32;7.60;;;6.95;;
11677;SDS011;5895;41.950;24.372;2023-06-22T07:46:59;7.60;;;6.95;;
11677;SDS011;5895;41.950;24.372;2023-06-22T07:49:27;17.85;;;8.98;;
11677;SDS011;5895;41.950;24.372;2023-06-22T07:51:54;16.38;;;9.50;;
11677;SDS011;5895;41.950;24.372;2023-06-22T07:54:21;7.60;;;6.90;;
11677;SDS011;5895;41.950;24.372;2023-06-22T07:56:48;9.88;;;7.90;;
11677;SDS011;5895;41.950;24.372;2023-06-22T07:59:16;22.30;;;9.82;;
11677;SDS011;5895;41.950;24.372;2023-06-22T08:01:44;11.35;;;8.10;;
11677;SDS011;5895;41.950;24.372;2023-06-22T08:04:14;27.58;;;11.68;;
11677;SDS011;5895;41.950;24.372;2023-06-22T08:06:41;12.18;;;7.43;;
11677;SDS011;5895;41.950;24.372;2023-06-22T08:09:08;8.90;;;7.47;;
11677;SDS011;5895;41.950;24.372;2023-06-22T08:11:36;7.80;;;7.05;;
11677;SDS011;5895;41.950;24.372;2023-06-22T08:14:03;7.25;;;6.55;;
11677;SDS011;5895;41.950;24.372;2023-06-22T08:16:30;8.25;;;7.00;;
11677;SDS011;5895;41.950;24.372;2023-06-22T08:18:58;7.82;;;6.95;;
11677;SDS011;5895;41.950;24.372;2023-06-22T08:21:25;6.90;;;6.30;;
11677;SDS011;5895;41.950;24.372;2023-06-22T08:23:53;7.40;;;6.70;;
11677;SDS011;5895;41.950;24.372;2023-06-22T08:26:20;9.05;;;7.20;;
11677;SDS011;5895;41.950;24.372;2023-06-22T08:28:48;7.32;;;6.63;;
11677;SDS011;5895;41.950;24.372;2023-06-22T08:31:15;7.88;;;7.18;;
11677;SDS011;5895;41.950;24.372;2023-06-22T08:33:43;7.55;;;6.72;;
11677;SDS011;5895;41.950;24.372;2023-06-22T08:36:13;10.75;;;7.90;;
11677;SDS011;5895;41.950;24.372;2023-06-22T08:38:40;7.13;;;6.45;;
11677;SDS011;5895;41.950;24.372;2023-06-22T08:41:07;8.10;;;7.40;;
11677;SDS011;5895;41.950;24.372;2023-06-22T08:43:34;8.52;;;7.60;;
11677;SDS011;5895;41.950;24.372;2023-06-22T08:46:01;7.63;;;7.03;;
11677;SDS011;5895;41.950;24.372;2023-06-22T08:48:29;8.13;;;7.43;;
11677;SDS011;5895;41.950;24.372;2023-06-22T08:50:56;7.43;;;6.53;;
11677;SDS011;5895;41.950;24.372;2023-06-22T08:53:24;7.32;;;6.72;;
11677;SDS011;5895;41.950;24.372;2023-06-22T08:55:52;7.57;;;6.97;;
11677;SDS011;5895;41.950;24.372;2023-06-22T08:58:19;14.52;;;7.32;;
11677;SDS011;5895;41.950;24.372;2023-06-22T09:00:46;7.85;;;7.15;;
11677;SDS011;5895;41.950;24.372;2023-06-22T09:03:13;6.90;;;6.30;;
11677;SDS011;5895;41.950;24.372;2023-06-22T09:05:40;7.93;;;6.47;;
11677;SDS011;5895;41.950;24.372;2023-06-22T09:08:07;6.85;;;6.25;;
11677;SDS011;5895;41.950;24.372;2023-06-22T09:10:36;7.30;;;6.10;;
11677;SDS011;5895;41.950;24.372;2023-06-22T09:13:03;7.38;;;6.78;;
11677;SDS011;5895;41.950;24.372;2023-06-22T09:15:30;7.00;;;6.43;;
11677;SDS011;5895;41.950;24.372;2023-06-22T09:17:58;7.57;;;6.30;;
11677;SDS011;5895;41.950;24.372;2023-06-22T09:20:25;7.15;;;6.47;;
11677;SDS011;5895;41.950;24.372;2023-06-22T09:22:52;6.93;;;6.32;;
11677;SDS011;5895;41.950;24.372;2023-06-22T09:25:19;6.53;;;6.03;;
11677;SDS011;5895;41.950;24.372;2023-06-22T09:27:48;10.60;;;6.10;;
11677;SDS011;5895;41.950;24.372;2023-06-22T09:30:15;6.20;;;5.68;;
11677;SDS011;5895;41.950;24.372;2023-06-22T09:32:42;13.02;;;6.63;;
11677;SDS011;5895;41.950;24.372;2023-06-22T09:35:10;6.82;;;6.00;;
11677;SDS011;5895;41.950;24.372;2023-06-22T09:37:38;6.82;;;6.22;;
11677;SDS011;5895;41.950;24.372;2023-06-22T09:40:06;6.78;;;6.13;;
11677;SDS011;5895;41.950;24.372;2023-06-22T09:42:36;7.45;;;6.78;;
11677;SDS011;5895;41.950;24.372;2023-06-22T09:45:05;6.85;;;6.20;;
11677;SDS011;5895;41.950;24.372;2023-06-22T09:47:33;6.75;;;6.15;;
11677;SDS011;5895;41.950;24.372;2023-06-22T09:50:00;6.50;;;5.90;;
11677;SDS011;5895;41.950;24.372;2023-06-22T09:52:27;6.93;;;6.30;;
11677;SDS011;5895;41.950;24.372;2023-06-22T09:54:54;9.50;;;6.57;;
11677;SDS011;5895;41.950;24.372;2023-06-22T09:57:22;7.43;;;6.82;;
11677;SDS011;5895;41.950;24.372;2023-06-22T09:59:49;6.63;;;6.13;;
11677;SDS011;5895;41.950;24.372;2023-06-22T10:02:17;7.35;;;6.60;;
11677;SDS011;5895;41.950;24.372;2023-06-22T10:04:46;6.93;;;6.32;;
11677;SDS011;5895;41.950;24.372;2023-06-22T10:07:13;6.70;;;6.20;;
11677;SDS011;5895;41.950;24.372;2023-06-22T10:09:40;6.65;;;6.15;;
11677;SDS011;5895;41.950;24.372;2023-06-22T10:12:08;7.07;;;6.38;;
11677;SDS011;5895;41.950;24.372;2023-06-22T10:14:35;6.13;;;5.63;;
11677;SDS011;5895;41.950;24.372;2023-06-22T10:17:03;6.38;;;5.88;;
11677;SDS011;5895;41.950;24.372;2023-06-22T10:19:33;7.22;;;5.82;;
11677;SDS011;5895;41.950;24.372;2023-06-22T10:22:03;6.57;;;6.07;;
11677;SDS011;5895;41.950;24.372;2023-06-22T10:24:30;10.50;;;6.75;;
11677;SDS011;5895;41.950;24.372;2023-06-22T10:26:57;10.35;;;6.43;;
11677;SDS011;5895;41.950;24.372;2023-06-22T10:29:25;6.50;;;6.00;;
11677;SDS011;5895;41.950;24.372;2023-06-22T10:31:52;7.03;;;6.43;;
11677;SDS011;5895;41.950;24.372;2023-06-22T10:34:19;6.88;;;6.38;;
11677;SDS011;5895;41.950;24.372;2023-06-22T10:36:48;6.13;;;5.60;;
11677;SDS011;5895;41.950;24.372;2023-06-22T10:39:15;6.85;;;5.90;;
11677;SDS011;5895;41.950;24.372;2023-06-22T10:41:43;6.90;;;6.18;;
11677;SDS011;5895;41.950;24.372;2023-06-22T10:44:10;6.47;;;5.88;;
11677;SDS011;5895;41.950;24.372;2023-06-22T10:46:37;6.03;;;5.43;;
11677;SDS011;5895;41.950;24.372;2023-06-22T10:49:04;6.75;;;6.15;;
11677;SDS011;5895;41.950;24.372;2023-06-22T10:51:31;8.13;;;5.47;;
11677;SDS011;5895;41.950;24.372;2023-06-22T10:54:00;6.32;;;5.82;;
11677;SDS011;5895;41.950;24.372;2023-06-22T10:56:29;6.82;;;6.20;;
11677;SDS011;5895;41.950;24.372;2023-06-22T10:58:58;6.70;;;6.20;;
11677;SDS011;5895;41.950;24.372;2023-06-22T11:01:27;15.73;;;7.22;;
11677;SDS011;5895;41.950;24.372;2023-06-22T11:03:56;6.13;;;5.53;;
11677;SDS011;5895;41.950;24.372;2023-06-22T11:06:23;6.88;;;6.28;;
11677;SDS011;5895;41.950;24.372;2023-06-22T11:08:50;6.88;;;6.28;;
11677;SDS011;5895;41.950;24.372;2023-06-22T11:11:19;6.35;;;5.78;;
11677;SDS011;5895;41.950;24.372;2023-06-22T11:13:46;9.45;;;6.43;;
11677;SDS011;5895;41.950;24.372;2023-06-22T11:16:13;6.45;;;5.95;;
11677;SDS011;5895;41.950;24.372;2023-06-22T11:18:41;7.05;;;6.45;;
11677;SDS011;5895;41.950;24.372;2023-06-22T11:21:08;7.10;;;6.38;;
11677;SDS011;5895;41.950;24.372;2023-06-22T11:23:35;6.50;;;5.90;;
11677;SDS011;5895;41.950;24.372;2023-06-22T11:26:02;6.82;;;6.13;;
11677;SDS011;5895;41.950;24.372;2023-06-22T11:28:31;6.63;;;6.00;;
11677;SDS011;5895;41.950;24.372;2023-06-22T11:30:58;6.85;;;6.15;;
11677;SDS011;5895;41.950;24.372;2023-06-22T11:33:25;7.43;;;6.13;;
11677;SDS011;5895;41.950;24.372;2023-06-22T11:35:52;6.53;;;6.00;;
11677;SDS011;5895;41.950;24.372;2023-06-22T11:38:21;6.65;;;6.05;;
11677;SDS011;5895;41.950;24.372;2023-06-22T11:40:48;6.63;;;6.03;;
11677;SDS011;5895;41.950;24.372;2023-06-22T11:43:16;8.20;;;6.97;;
11677;SDS011;5895;41.950;24.372;2023-06-22T11:45:44;7.22;;;6.53;;
11677;SDS011;5895;41.950;24.372;2023-06-22T11:48:11;6.57;;;5.85;;
11677;SDS011;5895;41.950;24.372;2023-06-22T11:50:38;6.40;;;5.90;;
11677;SDS011;5895;41.950;24.372;2023-06-22T11:53:06;7.05;;;6.47;;
11677;SDS011;5895;41.950;24.372;2023-06-22T11:55:33;6.90;;;6.18;;
11677;SDS011;5895;41.950;24.372;2023-06-22T11:58:00;7.75;;;6.40;;
11677;SDS011;5895;41.950;24.372;2023-06-22T12:00:29;7.00;;;6.30;;
11677;SDS011;5895;41.950;24.372;2023-06-22T12:02:57;7.35;;;6.65;;
11677;SDS011;5895;41.950;24.372;2023-06-22T12:05:24;7.85;;;7.03;;
11677;SDS011;5895;41.950;24.372;2023-06-22T12:07:52;6.85;;;6.25;;
11677;SDS011;5895;41.950;24.372;2023-06-22T12:10:20;7.90;;;6.35;;
11677;SDS011;5895;41.950;24.372;2023-06-22T12:12:47;6.90;;;6.30;;
11677;SDS011;5895;41.950;24.372;2023-06-22T12:15:14;7.22;;;6.60;;
11677;SDS011;5895;41.950;24.372;2023-06-22T12:17:42;7.22;;;6.63;;
11677;SDS011;5895;41.950;24.372;2023-06-22T12:20:11;7.88;;;6.75;;
11677;SDS011;5895;41.950;24.372;2023-06-22T12:22:38;8.18;;;6.78;;
11677;SDS011;5895;41.950;24.372;2023-06-22T12:25:05;7.55;;;6.80;;
11677;SDS011;5895;41.950;24.372;2023-06-22T12:27:33;7.88;;;6.78;;
11677;SDS011;5895;41.950;24.372;2023-06-22T12:30:00;6.88;;;6.28;;
11677;SDS011;5895;41.950;24.372;2023-06-22T12:32:28;7.40;;;6.80;;
11677;SDS011;5895;41.950;24.372;2023-06-22T12:34:55;8.05;;;7.35;;
11677;SDS011;5895;41.950;24.372;2023-06-22T12:37:24;7.80;;;7.03;;
11677;SDS011;5895;41.950;24.372;2023-06-22T12:39:51;7.30;;;6.60;;
11677;SDS011;5895;41.950;24.372;2023-06-22T12:42:19;7.45;;;6.75;;
11677;SDS011;5895;41.950;24.372;2023-06-22T12:44:46;7.90;;;7.03;;
11677;SDS011;5895;41.950;24.372;2023-06-22T12:47:14;7.43;;;6.72;;
11677;SDS011;5895;41.950;24.372;2023-06-22T12:49:41;6.85;;;6.35;;
11677;SDS011;5895;41.950;24.372;2023-06-22T12:52:11;8.25;;;7.45;;
11677;SDS011;5895;41.950;24.372;2023-06-22T12:54:39;8.23;;;7.15;;
11677;SDS011;5895;41.950;24.372;2023-06-22T12:57:06;8.10;;;7.40;;
11677;SDS011;5895;41.950;24.372;2023-06-22T12:59:33;7.78;;;7.13;;
11677;SDS011;5895;41.950;24.372;2023-06-22T13:02:01;7.80;;;7.20;;
11677;SDS011;5895;41.950;24.372;2023-06-22T13:04:28;8.07;;;7.22;;
11677;SDS011;5895;41.950;24.372;2023-06-22T13:06:55;8.23;;;7.45;;
11677;SDS011;5895;41.950;24.372;2023-06-22T13:09:22;8.65;;;7.78;;
11677;SDS011;5895;41.950;24.372;2023-06-22T13:11:51;9.52;;;8.55;;
11677;SDS011;5895;41.950;24.372;2023-06-22T13:14:18;9.40;;;8.35;;
11677;SDS011;5895;41.950;24.372;2023-06-22T13:16:45;9.82;;;8.27;;
11677;SDS011;5895;41.950;24.372;2023-06-22T13:19:12;11.80;;;8.85;;
11677;SDS011;5895;41.950;24.372;2023-06-22T13:21:40;9.45;;;8.65;;
11677;SDS011;5895;41.950;24.372;2023-06-22T13:24:07;9.95;;;9.05;;
11677;SDS011;5895;41.950;24.372;2023-06-22T13:26:34;9.20;;;8.30;;
11677;SDS011;5895;41.950;24.372;2023-06-22T13:29:03;9.30;;;8.52;;
11677;SDS011;5895;41.950;24.372;2023-06-22T13:31:30;10.85;;;9.40;;
11677;SDS011;5895;41.950;24.372;2023-06-22T13:33:57;13.25;;;9.50;;
11677;SDS011;5895;41.950;24.372;2023-06-22T13:36:24;10.02;;;9.18;;
11677;SDS011;5895;41.950;24.372;2023-06-22T13:38:51;10.57;;;9.57;;
11677;SDS011;5895;41.950;24.372;2023-06-22T13:41:18;10.93;;;9.82;;
11677;SDS011;5895;41.950;24.372;2023-06-22T13:43:45;10.43;;;9.43;;
11677;SDS011;5895;41.950;24.372;2023-06-22T13:46:14;10.20;;;9.23;;
11677;SDS011;5895;41.950;24.372;2023-06-22T13:48:41;10.70;;;9.70;;
11677;SDS011;5895;41.950;24.372;2023-06-22T13:51:08;9.05;;;8.25;;
11677;SDS011;5895;41.950;24.372;2023-06-22T13:53:35;9.07;;;8.25;;
11677;SDS011;5895;41.950;24.372;2023-06-22T13:56:03;10.25;;;9.27;;
11677;SDS011;5895;41.950;24.372;2023-06-22T13:58:30;11.18;;;9.02;;
11677;SDS011;5895;41.950;24.372;2023-06-22T14:00:57;9.30;;;8.25;;
11677;SDS011;5895;41.950;24.372;2023-06-22T14:03:26;8.85;;;8.15;;
11677;SDS011;5895;41.950;24.372;2023-06-22T14:05:53;8.70;;;8.00;;
11677;SDS011;5895;41.950;24.372;2023-06-22T14:08:21;8.93;;;8.13;;
11677;SDS011;5895;41.950;24.372;2023-06-22T14:10:50;8.27;;;7.50;;
11677;SDS011;5895;41.950;24.372;2023-06-22T14:13:18;8.55;;;7.85;;
11677;SDS011;5895;41.950;24.372;2023-06-22T14:15:46;9.00;;;8.25;;
11677;SDS011;5895;41.950;24.372;2023-06-22T14:18:14;8.25;;;7.45;;
11677;SDS011;5895;41.950;24.372;2023-06-22T14:20:43;9.10;;;8.20;;
11677;SDS011;5895;41.950;24.372;2023-06-22T14:23:10;8.50;;;7.80;;
11677;SDS011;5895;41.950;24.372;2023-06-22T14:25:37;8.20;;;7.50;;
11677;SDS011;5895;41.950;24.372;2023-06-22T14:28:07;8.15;;;7.45;;
11677;SDS011;5895;41.950;24.372;2023-06-22T14:30:34;8.93;;;7.97;;
11677;SDS011;5895;41.950;24.372;2023-06-22T14:33:01;8.27;;;7.55;;
11677;SDS011;5895;41.950;24.372;2023-06-22T14:35:28;9.18;;;8.18;;
11677;SDS011;5895;41.950;24.372;2023-06-22T14:37:56;8.95;;;8.15;;
11677;SDS011;5895;41.950;24.372;2023-06-22T14:40:24;10.35;;;7.63;;
11677;SDS011;5895;41.950;24.372;2023-06-22T14:42:51;8.20;;;7.35;;
11677;SDS011;5895;41.950;24.372;2023-06-22T14:45:18;8.10;;;7.30;;
11677;SDS011;5895;41.950;24.372;2023-06-22T14:47:45;8.82;;;7.93;;
11677;SDS011;5895;41.950;24.372;2023-06-22T14:50:12;8.15;;;7.43;;